Time;durP1;ratioP1;P1;durP2;ratioP2;P2;SDS_P1;SDS_P2;PMS_P1;PMS_P2;Temp;Humidity;BMP_temperature;BMP_pressure;BME280_temperature;BME280_humidity;BME280_pressure;Samples;Min_cycle;Max_cycle;Signal;HPM_P1;HPM_P2
2023/03/20 05:13:54;;;;;;;;;;;;;;;11.44;69.11;97264.53;4221687;27;10241;-74
2023/03/20 05:15:57;;;;;;;;;;;;;;;11.73;68.72;97255.69;4224336;28;5697;-72
2023/03/20 05:18:00;;;;;;;;;;;;;;;11.95;68.47;97254.72;4230511;28;5726;-70
2023/03/20 05:20:04;;;;;;;;;;;;;;;12.11;68.19;97243.00;4228423;28;5790;-72
2023/03/20 05:22:07;;;;;;;;;;;;;;;12.27;67.50;97252.53;4229221;28;5107;-73
2023/03/20 05:24:09;;;;;;;;;;;;;;;12.36;67.50;97248.72;4221219;28;7729;-71
2023/03/20 05:26:12;;;;;;;;;;;;;;;12.43;67.17;97241.63;4221111;28;5613;-70
2023/03/20 05:28:15;;;;;;;;;;;;;;;12.50;66.94;97231.88;4230661;28;5699;-71
2023/03/20 05:30:19;;;;;;;;;;;;;;;12.51;66.76;97234.34;4230276;28;5723;-72
2023/03/20 05:32:22;;;;;;;;;;;;;;;12.58;66.82;97238.88;4226721;28;5616;-72
2023/03/20 05:34:26;;;;;;;;;;;;;;;12.61;66.39;97239.31;4226605;28;5690;-73
2023/03/20 05:36:29;;;;;;;;;;;;;;;12.63;66.47;97237.28;4230613;28;5676;-73
2023/03/20 05:38:32;;;;;;;;;;;;;;;12.63;66.48;97239.09;4229903;28;5616;-71
2023/03/20 05:40:35;;;;;;;;;;;;;;;12.63;66.08;97242.56;4230992;28;5196;-71
2023/03/20 05:42:38;;;;;;;;;;;;;;;12.63;65.99;97234.63;4229507;28;7687;-72
2023/03/20 05:44:41;;;;;;;;;;;;;;;12.63;66.36;97242.56;4230151;28;5685;-71
2023/03/20 05:46:45;;;;;;;;;;;;;;;12.64;66.12;97248.69;4226434;28;5744;-71
2023/03/20 05:48:48;;;;;;;;;;;;;;;12.65;65.70;97240.53;4229856;28;5621;-72
2023/03/20 05:50:51;;;;;;;;;;;;;;;12.65;65.94;97253.81;4218970;28;5631;-71
2023/03/20 05:52:54;;;;;;;;;;;;;;;12.66;65.88;97251.97;4217935;28;5632;-71
2023/03/20 05:54:57;;;;;;;;;;;;;;;12.68;65.59;97252.59;4229087;28;5798;-72
2023/03/20 05:57:00;;;;;;;;;;;;;;;12.68;65.31;97256.06;4223461;28;5703;-71
2023/03/20 05:59:03;;;;;;;;;;;;;;;12.73;65.38;97252.84;4223037;28;5736;-70
2023/03/20 06:01:06;;;;;;;;;;;;;;;12.73;65.14;97250.19;4227567;28;5751;-72
2023/03/20 06:03:11;;;;;;;;;;;;;;;12.72;65.16;97252.03;4221484;28;5879;-70
2023/03/20 06:05:14;;;;;;;;;;;;;;;12.73;65.08;97244.88;4225787;28;5670;-70
2023/03/20 06:07:16;;;;;;;;;;;;;;;12.74;65.13;97249.16;4218674;28;5624;-72
2023/03/20 06:09:19;;;;;;;;;;;;;;;12.72;65.05;97248.56;4217773;28;5633;-69
2023/03/20 06:11:22;;;;;;;;;;;;;;;12.71;64.77;97255.69;4226021;28;5640;-70
2023/03/20 06:13:25;;;;;;;;;;;;;;;12.71;64.87;97255.69;4213425;28;5714;-71
2023/03/20 06:15:28;;;;;;;;;;;;;;;12.74;64.64;97257.13;4216138;28;5819;-71
2023/03/20 06:17:31;;;;;;;;;;;;;;;12.76;64.67;97263.88;4217447;28;5689;-71
2023/03/20 06:19:35;;;;;;;;;;;;;;;12.79;64.70;97265.31;4216315;28;5636;-70
2023/03/20 06:21:39;;;;;;;;;;;;;;;12.81;64.48;97256.16;4209401;28;5841;-71
2023/03/20 06:23:42;;;;;;;;;;;;;;;12.88;64.37;97268.63;4211042;28;6381;-71
2023/03/20 06:25:45;;;;;;;;;;;;;;;12.93;64.49;97260.91;4210795;28;5772;-70
2023/03/20 06:27:48;;;;;;;;;;;;;;;13.01;64.48;97266.03;4219288;28;5727;-70
2023/03/20 06:29:51;;;;;;;;;;;;;;;13.05;64.08;97264.66;4205849;28;5627;-70
2023/03/20 06:31:54;;;;;;;;;;;;;;;13.06;63.96;97261.78;4214859;28;6449;-70
2023/03/20 06:33:57;;;;;;;;;;;;;;;13.09;64.14;97257.91;4213065;28;5681;-71
2023/03/20 06:36:02;;;;;;;;;;;;;;;13.09;64.07;97257.91;4208316;28;5836;-70
2023/03/20 06:38:05;;;;;;;;;;;;;;;13.10;63.81;97267.50;4212941;28;5649;-70
2023/03/20 06:40:09;;;;;;;;;;;;;;;13.09;63.93;97257.91;4212836;28;5658;-69
2023/03/20 06:42:12;;;;;;;;;;;;;;;13.09;63.65;97261.38;4219031;28;5901;-69
2023/03/20 06:44:18;;;;;;;;;;;;;;;13.10;63.60;97254.25;4219259;28;5867;-70
2023/03/20 06:46:20;;;;;;;;;;;;;;;13.11;63.75;97258.53;4219196;28;5677;-69
2023/03/20 06:48:23;;;;;;;;;;;;;;;13.14;63.71;97263.47;4218723;28;5609;-69
2023/03/20 06:50:27;;;;;;;;;;;;;;;13.20;63.48;97259.22;4218955;28;5605;-69
2023/03/20 06:52:31;;;;;;;;;;;;;;;13.23;63.47;97259.63;4219046;28;6544;-69
2023/03/20 06:54:34;;;;;;;;;;;;;;;13.25;63.33;97262.94;4218762;28;5761;-69
2023/03/20 06:56:37;;;;;;;;;;;;;;;13.30;63.22;97268.47;4209323;28;5745;-69
2023/03/20 06:58:40;;;;;;;;;;;;;;;13.34;63.02;97268.88;4218998;28;5879;-69
2023/03/20 07:00:43;;;;;;;;;;;;;;;13.37;63.22;97271.16;4218893;28;5800;-70
2023/03/20 07:02:47;;;;;;;;;;;;;;;13.37;62.94;97268.50;4218615;28;5657;-69
2023/03/20 07:04:51;;;;;;;;;;;;;;;13.36;62.76;97274.78;4218220;28;5685;-69
2023/03/20 07:06:54;;;;;;;;;;;;;;;13.25;63.09;97273.56;4210431;28;5632;-68
2023/03/20 07:08:59;;;;;;;;;;;;;;;13.18;63.36;97270.00;4202894;28;5826;-68
2023/03/20 07:11:03;;;;;;;;;;;;;;;13.15;63.23;97273.06;4218217;28;5613;-68
2023/03/20 07:13:05;;;;;;;;;;;;;;;13.18;62.72;97271.84;4218088;28;5621;-68
2023/03/20 07:15:10;;;;;;;;;;;;;;;13.27;62.92;97274.16;4218627;28;5612;-69
2023/03/20 07:17:15;;;;;;;;;;;;;;;13.30;62.63;97279.06;4218819;28;6351;-69
2023/03/20 07:19:18;;;;;;;;;;;;;;;13.33;62.81;97268.06;4218515;28;5782;-67
2023/03/20 07:21:22;;;;;;;;;;;;;;;13.37;62.44;97269.31;4218561;28;5629;-68
2023/03/20 07:23:26;;;;;;;;;;;;;;;13.40;62.48;97278.72;4218673;28;5416;-67
2023/03/20 07:25:31;;;;;;;;;;;;;;;13.39;62.46;97275.25;4217216;28;7367;-68
2023/03/20 07:27:49;;;;;;;;;;;;;;;13.38;62.28;97278.09;4218286;28;5834;-68
2023/03/20 07:29:52;;;;;;;;;;;;;;;13.38;62.61;97268.28;4218293;28;5771;-68
2023/03/20 07:31:55;;;;;;;;;;;;;;;13.40;62.30;97273.41;4218117;28;6499;-68
2023/03/20 07:33:58;;;;;;;;;;;;;;;13.42;62.42;97274.00;4218202;28;5805;-68
2023/03/20 07:36:01;;;;;;;;;;;;;;;13.45;62.54;97278.09;4218381;28;5670;-68
2023/03/20 07:38:04;;;;;;;;;;;;;;;13.43;62.51;97274.81;4218317;28;5673;-68
2023/03/20 07:40:08;;;;;;;;;;;;;;;13.47;62.60;97278.72;4218402;28;5621;-68
2023/03/20 07:42:13;;;;;;;;;;;;;;;13.53;62.44;97277.94;4214876;28;5638;-68
2023/03/20 07:44:18;;;;;;;;;;;;;;;13.53;62.12;97280.59;4218176;28;5876;-68
2023/03/20 07:46:21;;;;;;;;;;;;;;;13.58;62.19;97283.44;4218117;28;5677;-68
2023/03/20 07:48:24;;;;;;;;;;;;;;;13.58;62.17;97280.78;4218120;28;5633;-68
2023/03/20 07:50:27;;;;;;;;;;;;;;;13.57;61.97;97276.50;4200034;28;5632;-68
2023/03/20 07:52:30;;;;;;;;;;;;;;;13.52;62.05;97284.25;4218098;28;5959;-68
2023/03/20 07:54:33;;;;;;;;;;;;;;;13.49;62.08;97285.50;4210844;28;5644;-68
2023/03/20 07:56:36;;;;;;;;;;;;;;;13.52;61.73;97292.22;4215995;28;5673;-68
2023/03/20 07:58:40;;;;;;;;;;;;;;;13.55;61.86;97292.66;4218036;28;6347;-68
2023/03/20 08:00:43;;;;;;;;;;;;;;;13.58;61.99;97294.06;4217814;28;5684;-68
2023/03/20 08:02:46;;;;;;;;;;;;;;;13.60;61.72;97300.84;4217602;28;5669;-68
2023/03/20 08:04:50;;;;;;;;;;;;;;;13.61;61.40;97299.00;4217607;28;5169;-69
2023/03/20 08:06:53;;;;;;;;;;;;;;;13.62;61.76;97304.13;4216903;28;5625;-68
2023/03/20 08:08:57;;;;;;;;;;;;;;;13.67;61.42;97303.50;4218112;28;5069;-69
2023/03/20 08:11:00;;;;;;;;;;;;;;;13.73;61.30;97308.03;4218051;28;5609;-69
2023/03/20 08:13:03;;;;;;;;;;;;;;;13.76;61.27;97310.28;4217544;28;5682;-68
2023/03/20 08:15:08;;;;;;;;;;;;;;;13.76;61.31;97320.91;4217604;28;5657;-68
2023/03/20 08:17:11;;;;;;;;;;;;;;;13.77;61.21;97324.38;4217705;28;5677;-68
2023/03/20 08:19:19;;;;;;;;;;;;;;;13.76;61.22;97320.91;4217470;28;5605;-68
2023/03/20 08:21:21;;;;;;;;;;;;;;;13.74;60.96;97325.63;4217840;28;5809;-68
2023/03/20 08:23:25;;;;;;;;;;;;;;;13.73;61.23;97328.47;4217417;28;5609;-68
2023/03/20 08:25:32;;;;;;;;;;;;;;;13.74;61.24;97324.78;4190943;28;5849;-68
2023/03/20 08:27:35;;;;;;;;;;;;;;;13.78;60.94;97326.84;4217621;28;5720;-68
2023/03/20 08:29:38;;;;;;;;;;;;;;;13.79;61.17;97330.31;4217803;28;5613;-68
2023/03/20 08:31:43;;;;;;;;;;;;;;;13.78;60.86;97321.53;4190621;28;5647;-68
2023/03/20 08:33:46;;;;;;;;;;;;;;;13.79;60.90;97333.78;4217352;28;6978;-68
2023/03/20 08:35:55;;;;;;;;;;;;;;;13.82;60.92;97333.41;4217634;28;5684;-68
2023/03/20 08:37:58;;;;;;;;;;;;;;;13.85;60.41;97333.00;4217094;28;7702;-68
2023/03/20 08:40:01;;;;;;;;;;;;;;;13.84;60.61;97325.25;4217491;28;6407;-68
2023/03/20 08:42:05;;;;;;;;;;;;;;;13.89;60.70;97325.44;4217493;28;6686;-68
2023/03/20 08:44:08;;;;;;;;;;;;;;;13.92;60.61;97327.69;4207819;28;5627;-69
2023/03/20 08:46:11;;;;;;;;;;;;;;;13.96;60.54;97324.44;4217580;28;5704;-69
2023/03/20 08:48:16;;;;;;;;;;;;;;;14.07;60.38;97319.56;4217232;28;5604;-68
2023/03/20 08:50:19;;;;;;;;;;;;;;;14.14;60.29;97315.88;4217501;28;5720;-68
2023/03/20 08:52:22;;;;;;;;;;;;;;;14.19;60.21;97324.06;4217225;28;5662;-68
2023/03/20 08:54:25;;;;;;;;;;;;;;;14.23;59.89;97314.66;4217473;28;5705;-68
2023/03/20 08:56:28;;;;;;;;;;;;;;;14.26;60.00;97324.06;4217291;28;5685;-68
2023/03/20 08:58:31;;;;;;;;;;;;;;;14.25;59.63;97309.13;4217169;28;6411;-67
2023/03/20 09:00:34;;;;;;;;;;;;;;;14.26;59.92;97318.75;4217099;28;7753;-68
2023/03/20 09:02:37;;;;;;;;;;;;;;;14.29;59.82;97318.38;4217064;28;5733;-68
2023/03/20 09:04:41;;;;;;;;;;;;;;;14.35;59.81;97316.72;4216852;28;5691;-68
2023/03/20 09:06:45;;;;;;;;;;;;;;;14.43;59.36;97313.84;4217236;28;5806;-70
2023/03/20 09:08:48;;;;;;;;;;;;;;;14.47;59.46;97317.75;4217120;28;5260;-68
2023/03/20 09:10:51;;;;;;;;;;;;;;;14.48;59.31;97325.53;4217110;28;7656;-68
2023/03/20 09:12:55;;;;;;;;;;;;;;;14.44;59.42;97324.31;4216762;28;5621;-69
2023/03/20 09:14:58;;;;;;;;;;;;;;;14.44;59.27;97321.66;4217006;28;5681;-69
2023/03/20 09:17:01;;;;;;;;;;;;;;;14.45;59.17;97325.13;4217281;28;5804;-69
2023/03/20 09:19:05;;;;;;;;;;;;;;;14.42;59.48;97336.16;4216678;28;5670;-68
2023/03/20 09:21:09;;;;;;;;;;;;;;;14.43;59.35;97335.97;4216926;28;5700;-68
2023/03/20 09:23:12;;;;;;;;;;;;;;;14.36;59.23;97332.47;4217183;28;5745;-68
2023/03/20 09:25:15;;;;;;;;;;;;;;;14.28;59.52;97330.03;4216837;28;5657;-69
2023/03/20 09:27:18;;;;;;;;;;;;;;;14.22;59.32;97330.81;4217178;28;5744;-68
2023/03/20 09:29:21;;;;;;;;;;;;;;;14.17;59.61;97322.66;4216956;28;5690;-68
2023/03/20 09:31:24;;;;;;;;;;;;;;;14.11;59.33;97320.78;4215737;28;5734;-68
2023/03/20 09:33:27;;;;;;;;;;;;;;;14.03;59.45;97320.97;4216480;28;5613;-67
2023/03/20 09:35:30;;;;;;;;;;;;;;;14.01;59.59;97331.81;4216837;28;5632;-69
2023/03/20 09:37:35;;;;;;;;;;;;;;;14.05;59.40;97334.91;4217094;28;5789;-68
2023/03/20 09:39:38;;;;;;;;;;;;;;;14.05;59.34;97342.88;4217007;28;5863;-69
2023/03/20 09:41:48;;;;;;;;;;;;;;;13.97;59.18;97342.03;4217029;28;6353;-68
2023/03/20 09:44:09;;;;;;;;;;;;;;;13.92;59.20;97349.78;4217064;28;5673;-68
2023/03/20 09:46:26;;;;;;;;;;;;;;;13.90;59.00;97351.00;4216862;28;5669;-69
2023/03/20 09:48:35;;;;;;;;;;;;;;;13.87;59.05;97340.78;4217115;28;5674;-69
2023/03/20 09:50:42;;;;;;;;;;;;;;;13.92;58.93;97336.47;4220169;28;5612;-68
2023/03/20 09:52:54;;;;;;;;;;;;;;;13.94;58.90;97345.09;4212555;28;5093;-68
2023/03/20 09:55:01;;;;;;;;;;;;;;;13.96;58.91;97345.72;4212062;28;7778;-67
2023/03/20 09:57:05;;;;;;;;;;;;;;;14.01;58.80;97349.59;4218122;28;5080;-67
2023/03/20 09:59:08;;;;;;;;;;;;;;;14.06;58.56;97347.16;4213755;28;5704;-68
2023/03/20 10:01:14;;;;;;;;;;;;;;;14.06;58.40;97344.50;4219711;28;5613;-68
2023/03/20 10:03:20;;;;;;;;;;;;;;;14.06;58.38;97340.00;4219601;28;5613;-68
2023/03/20 10:05:25;;;;;;;;;;;;;;;14.04;58.35;97344.69;4217647;28;5624;-68
2023/03/20 10:07:28;;;;;;;;;;;;;;;14.03;58.22;97353.69;4208979;28;5654;-68
2023/03/20 10:09:33;;;;;;;;;;;;;;;14.04;58.21;97343.88;4213812;28;5798;-68
2023/03/20 10:11:53;;;;;;;;;;;;;;;14.02;58.12;97344.06;4211792;28;5844;-68
2023/03/20 10:14:07;;;;;;;;;;;;;;;14.05;57.90;97348.19;4211133;28;5616;-67
2023/03/20 10:16:19;;;;;;;;;;;;;;;14.08;57.80;97342.47;4213623;28;5896;-68
2023/03/20 10:18:25;;;;;;;;;;;;;;;14.08;57.65;97337.97;4210192;28;5729;-68
2023/03/20 10:20:34;;;;;;;;;;;;;;;14.11;57.78;97348.19;4209157;28;5108;-67
2023/03/20 10:22:41;;;;;;;;;;;;;;;14.12;57.41;97349.81;4214747;28;5625;-69
2023/03/20 10:24:52;;;;;;;;;;;;;;;14.13;57.41;97362.09;4219239;28;5624;-69
2023/03/20 10:27:01;;;;;;;;;;;;;;;14.14;57.36;97357.59;4219400;28;5621;-69
2023/03/20 10:29:14;;;;;;;;;;;;;;;14.16;57.55;97355.56;4219345;28;5708;-69
2023/03/20 10:31:28;;;;;;;;;;;;;;;14.15;57.41;97369.88;4218917;28;5665;-69
2023/03/20 10:33:48;;;;;;;;;;;;;;;14.17;57.29;97367.84;4218985;28;5658;-69
2023/03/20 10:36:01;;;;;;;;;;;;;;;14.17;57.30;97370.50;4219176;28;6770;-69
2023/03/20 10:38:17;;;;;;;;;;;;;;;14.22;57.03;97366.22;4201097;28;5643;-69
2023/03/20 10:40:28;;;;;;;;;;;;;;;14.23;56.95;97361.72;4219129;28;5637;-69
2023/03/20 10:42:37;;;;;;;;;;;;;;;14.32;57.08;97360.50;4213509;28;5695;-69
2023/03/20 10:44:45;;;;;;;;;;;;;;;14.37;56.87;97360.69;4209030;28;5824;-68
2023/03/20 10:46:53;;;;;;;;;;;;;;;14.45;56.98;97362.38;4219404;28;5094;-69
2023/03/20 10:49:00;;;;;;;;;;;;;;;14.49;56.81;97364.41;4210685;28;7688;-69
2023/03/20 10:51:05;;;;;;;;;;;;;;;14.55;56.67;97358.28;4210954;28;5708;-69
2023/03/20 10:53:08;;;;;;;;;;;;;;;14.61;56.63;97355.81;4210312;28;5613;-69
2023/03/20 10:55:15;;;;;;;;;;;;;;;14.63;56.49;97351.97;4213508;28;5624;-69
2023/03/20 10:57:23;;;;;;;;;;;;;;;14.63;56.47;97361.78;4212922;28;5707;-69
2023/03/20 10:59:29;;;;;;;;;;;;;;;14.60;56.40;97356.84;4210339;28;5816;-69
2023/03/20 11:01:32;;;;;;;;;;;;;;;14.60;56.58;97348.88;4216153;28;5678;-69
2023/03/20 11:03:38;;;;;;;;;;;;;;;14.59;56.63;97345.38;4209890;28;5763;-69
2023/03/20 11:05:42;;;;;;;;;;;;;;;14.58;56.61;97346.41;4218603;28;5612;-69
2023/03/20 11:07:49;;;;;;;;;;;;;;;14.57;56.80;97342.94;4192154;28;6322;-68
2023/03/20 11:10:11;;;;;;;;;;;;;;;14.61;56.94;97342.53;4210162;28;6344;-68
2023/03/20 11:12:17;;;;;;;;;;;;;;;14.63;56.68;97346.63;4213389;28;5605;-68
2023/03/20 11:14:24;;;;;;;;;;;;;;;14.64;56.78;97339.47;4218345;28;5701;-68
2023/03/20 11:16:31;;;;;;;;;;;;;;;14.63;56.86;97345.81;4218348;28;5642;-68
2023/03/20 11:18:35;;;;;;;;;;;;;;;14.59;56.75;97345.38;4210033;28;5668;-68
2023/03/20 11:20:44;;;;;;;;;;;;;;;14.55;56.71;97339.66;4218410;28;5662;-69
2023/03/20 11:22:48;;;;;;;;;;;;;;;14.48;56.70;97340.69;4218340;28;5696;-69
2023/03/20 11:24:54;;;;;;;;;;;;;;;14.46;56.89;97340.88;4209901;28;5613;-69
2023/03/20 11:27:06;;;;;;;;;;;;;;;14.48;56.62;97338.84;4209945;28;5692;-69
2023/03/20 11:29:22;;;;;;;;;;;;;;;14.49;56.82;97334.34;4218408;28;5620;-70
2023/03/20 11:31:33;;;;;;;;;;;;;;;14.45;56.65;97343.75;4213657;28;5640;-69
2023/03/20 11:33:39;;;;;;;;;;;;;;;14.39;56.68;97334.75;4215962;28;5092;-69
2023/03/20 11:35:46;;;;;;;;;;;;;;;14.35;56.55;97341.47;4205414;28;5853;-69
2023/03/20 11:37:51;;;;;;;;;;;;;;;14.35;56.54;97338.81;4208278;28;5623;-69
2023/03/20 11:39:59;;;;;;;;;;;;;;;14.41;56.58;97337.19;4202114;28;5628;-68
2023/03/20 11:42:03;;;;;;;;;;;;;;;14.54;56.46;97342.53;4207195;28;5623;-68
2023/03/20 11:44:24;;;;;;;;;;;;;;;14.62;56.39;97338.88;4202234;28;5707;-68
2023/03/20 11:46:29;;;;;;;;;;;;;;;14.74;56.08;97342.53;4218254;28;5778;-68
2023/03/20 11:48:37;;;;;;;;;;;;;;;14.85;56.04;97334.75;4217740;28;5692;-68
2023/03/20 11:50:46;;;;;;;;;;;;;;;14.94;55.61;97342.50;4218191;28;5682;-68
2023/03/20 11:52:49;;;;;;;;;;;;;;;14.96;55.62;97335.97;4218304;28;5633;-68
2023/03/20 11:54:54;;;;;;;;;;;;;;;14.96;55.75;97335.97;4218008;28;5616;-68
2023/03/20 11:57:00;;;;;;;;;;;;;;;14.96;55.43;97332.47;4218015;28;6531;-68
2023/03/20 11:59:12;;;;;;;;;;;;;;;15.02;55.25;97339.63;4218163;28;5847;-68
2023/03/20 12:01:15;;;;;;;;;;;;;;;15.06;55.40;97335.50;4218114;28;5669;-68
2023/03/20 12:03:39;;;;;;;;;;;;;;;15.13;54.98;97337.16;4217810;28;6349;-69
2023/03/20 12:05:42;;;;;;;;;;;;;;;15.17;55.14;97337.53;4218038;28;5729;-69
2023/03/20 12:07:48;;;;;;;;;;;;;;;15.17;54.97;97334.88;4217733;28;5620;-67
2023/03/20 12:09:54;;;;;;;;;;;;;;;15.22;54.73;97331.59;4217968;28;5670;-68
2023/03/20 12:12:00;;;;;;;;;;;;;;;15.25;54.68;97325.84;4217023;28;5831;-68
2023/03/20 12:14:08;;;;;;;;;;;;;;;15.27;54.65;97318.47;4217662;28;5682;-68
2023/03/20 12:16:15;;;;;;;;;;;;;;;15.32;54.64;97318.66;4217603;28;5927;-68
2023/03/20 12:18:26;;;;;;;;;;;;;;;15.38;54.63;97323.13;4218089;28;5867;-68
2023/03/20 12:20:36;;;;;;;;;;;;;;;15.40;54.04;97324.59;4217586;28;5677;-68
2023/03/20 12:22:49;;;;;;;;;;;;;;;15.44;54.06;97316.97;4217734;28;5759;-68
2023/03/20 12:24:59;;;;;;;;;;;;;;;15.48;54.25;97318.19;4201183;28;5758;-68
2023/03/20 12:27:15;;;;;;;;;;;;;;;15.50;54.08;97315.31;4217532;28;5617;-68
2023/03/20 12:29:26;;;;;;;;;;;;;;;15.48;53.96;97318.19;4217423;28;5756;-68
2023/03/20 12:31:35;;;;;;;;;;;;;;;15.47;53.90;97316.56;4217643;28;5618;-68
2023/03/20 12:33:44;;;;;;;;;;;;;;;15.47;53.92;97318.41;4217320;28;5724;-69
2023/03/20 12:35:53;;;;;;;;;;;;;;;15.47;53.84;97307.75;4217344;28;5649;-68
2023/03/20 12:37:57;;;;;;;;;;;;;;;15.48;53.87;97307.53;4200933;28;5616;-69
2023/03/20 12:40:03;;;;;;;;;;;;;;;15.49;53.70;97309.16;4210218;28;5678;-69
2023/03/20 12:42:17;;;;;;;;;;;;;;;15.47;53.53;97305.88;4189072;28;6335;-69
2023/03/20 12:44:29;;;;;;;;;;;;;;;15.48;53.18;97302.19;4200834;28;5660;-69
2023/03/20 12:46:41;;;;;;;;;;;;;;;15.46;53.38;97296.25;4206634;28;5739;-69
2023/03/20 12:48:54;;;;;;;;;;;;;;;15.48;53.13;97291.53;4217153;28;5670;-69
2023/03/20 12:51:04;;;;;;;;;;;;;;;15.54;52.84;97290.69;4217346;28;5629;-69
2023/03/20 12:53:30;;;;;;;;;;;;;;;15.55;53.01;97292.34;4217396;28;5616;-69
2023/03/20 12:55:46;;;;;;;;;;;;;;;15.52;53.07;97287.44;4216234;28;5683;-69
2023/03/20 12:58:05;;;;;;;;;;;;;;;15.55;52.87;97291.53;4217575;28;5665;-67
2023/03/20 13:00:21;;;;;;;;;;;;;;;15.53;52.50;97281.06;4206431;28;5770;-68
2023/03/20 13:02:42;;;;;;;;;;;;;;;15.43;52.54;97283.38;4216286;28;5765;-68
2023/03/20 13:04:57;;;;;;;;;;;;;;;15.41;52.44;97274.78;4205273;28;5609;-69
2023/03/20 13:07:12;;;;;;;;;;;;;;;15.41;52.56;97275.59;4208399;28;5925;-67
2023/03/20 13:09:47;;;;;;;;;;;;;;;15.43;52.41;97272.72;4209217;28;5085;-68
2023/03/20 13:12:00;;;;;;;;;;;;;;;15.43;52.19;97252.22;4208717;28;5678;-68
2023/03/20 13:14:08;;;;;;;;;;;;;;;15.46;52.11;97244.81;4199834;28;5790;-69
2023/03/20 13:16:22;;;;;;;;;;;;;;;15.44;52.05;97242.38;4206636;28;5133;-69
2023/03/20 13:18:36;;;;;;;;;;;;;;;15.39;52.19;97242.19;4203980;28;5666;-69
2023/03/20 13:20:46;;;;;;;;;;;;;;;15.37;51.94;97244.25;4214942;28;5733;-69
2023/03/20 13:23:01;;;;;;;;;;;;;;;15.36;52.00;97231.97;4198751;28;5664;-69
2023/03/20 13:25:26;;;;;;;;;;;;;;;15.36;51.88;97235.44;4186165;28;5125;-68
2023/03/20 13:27:37;;;;;;;;;;;;;;;15.35;51.64;97233.81;4219249;28;8574;-69
2023/03/20 13:29:50;;;;;;;;;;;;;;;15.35;51.88;97222.34;4211394;28;5676;-69
2023/03/20 13:31:59;;;;;;;;;;;;;;;15.36;51.77;97234.63;4211159;28;6414;-69
2023/03/20 13:34:12;;;;;;;;;;;;;;;15.35;51.45;97230.31;4204017;28;5752;-69
2023/03/20 13:36:27;;;;;;;;;;;;;;;15.31;51.63;97221.13;4209900;28;5723;-69
2023/03/20 13:38:35;;;;;;;;;;;;;;;15.29;51.51;97223.16;4216948;28;5796;-68
2023/03/20 13:40:42;;;;;;;;;;;;;;;15.25;51.50;97216.66;4203694;28;5627;-68
2023/03/20 13:42:52;;;;;;;;;;;;;;;15.23;51.44;97218.72;4210467;28;6317;-68
2023/03/20 13:45:05;;;;;;;;;;;;;;;15.21;51.36;97212.78;4210901;28;5735;-69
2023/03/20 13:47:13;;;;;;;;;;;;;;;15.25;51.36;97221.97;4214320;28;5676;-68
2023/03/20 13:49:24;;;;;;;;;;;;;;;15.23;51.28;97213.38;4206687;28;5660;-68
2023/03/20 13:51:33;;;;;;;;;;;;;;;15.19;51.06;97217.50;4213962;28;5605;-69
2023/03/20 13:53:48;;;;;;;;;;;;;;;15.14;51.16;97208.28;4216961;28;5740;-68
2023/03/20 13:55:59;;;;;;;;;;;;;;;15.17;51.10;97204.38;4205868;28;5724;-68
2023/03/20 13:58:19;;;;;;;;;;;;;;;15.19;51.23;97207.66;4209982;28;6799;-68
2023/03/20 14:00:29;;;;;;;;;;;;;;;15.23;51.06;97208.06;4208556;28;5691;-68
2023/03/20 14:02:39;;;;;;;;;;;;;;;15.28;50.84;97210.88;4217167;28;5620;-68
2023/03/20 14:04:43;;;;;;;;;;;;;;;15.30;50.65;97208.84;4216378;28;5693;-68
2023/03/20 14:06:52;;;;;;;;;;;;;;;15.25;50.67;97206.00;4215838;28;5609;-68
2023/03/20 14:08:58;;;;;;;;;;;;;;;15.22;50.44;97203.75;4217255;28;5723;-69
2023/03/20 14:11:31;;;;;;;;;;;;;;;15.19;50.70;97199.69;4202896;28;6512;-68
2023/03/20 14:13:35;;;;;;;;;;;;;;;15.18;50.57;97191.91;4205823;28;5620;-67
2023/03/20 14:15:45;;;;;;;;;;;;;;;15.23;50.61;97197.41;4210897;28;5628;-68
2023/03/20 14:17:50;;;;;;;;;;;;;;;15.24;50.50;97194.53;4215789;28;5684;-69
2023/03/20 14:19:55;;;;;;;;;;;;;;;15.27;50.31;97193.28;4212639;28;5772;-69
2023/03/20 14:21:58;;;;;;;;;;;;;;;15.28;50.41;97189.56;4210637;28;5846;-69
2023/03/20 14:24:06;;;;;;;;;;;;;;;15.29;50.13;97185.88;4210539;28;5622;-68
2023/03/20 14:26:11;;;;;;;;;;;;;;;15.28;50.29;97186.91;4212364;28;5703;-69
2023/03/20 14:28:26;;;;;;;;;;;;;;;15.27;50.01;97187.94;4210716;28;5820;-69
2023/03/20 14:30:49;;;;;;;;;;;;;;;15.29;50.19;97185.88;4209758;28;5644;-68
2023/03/20 14:32:58;;;;;;;;;;;;;;;15.29;49.86;97183.22;4209328;28;5613;-68
2023/03/20 14:35:21;;;;;;;;;;;;;;;15.28;50.14;97179.75;4202751;28;5746;-68
2023/03/20 14:37:29;;;;;;;;;;;;;;;15.30;50.07;97182.22;4207377;28;5687;-67
2023/03/20 14:39:50;;;;;;;;;;;;;;;15.31;49.94;97191.84;4210387;28;5726;-68
2023/03/20 14:42:19;;;;;;;;;;;;;;;15.31;50.10;97186.50;4203566;28;5631;-68
2023/03/20 14:44:33;;;;;;;;;;;;;;;15.35;49.78;97185.03;4209189;28;6376;-67
2023/03/20 14:46:48;;;;;;;;;;;;;;;15.32;49.87;97180.16;4204775;28;5714;-68
2023/03/20 14:48:53;;;;;;;;;;;;;;;15.31;49.92;97176.66;4203362;28;5643;-67
2023/03/20 14:51:09;;;;;;;;;;;;;;;15.34;49.66;97172.75;4210177;28;5672;-67
2023/03/20 14:53:16;;;;;;;;;;;;;;;15.37;49.58;97181.13;4215470;28;5646;-69
2023/03/20 14:55:34;;;;;;;;;;;;;;;15.38;49.64;97173.94;4214747;28;5132;-67
2023/03/20 14:57:37;;;;;;;;;;;;;;;15.39;49.56;97164.94;4205219;28;5835;-68
2023/03/20 14:59:59;;;;;;;;;;;;;;;15.39;49.51;97154.25;4204136;28;5754;-68
2023/03/20 15:02:03;;;;;;;;;;;;;;;15.40;49.58;97159.41;4207312;28;5644;-68
2023/03/20 15:04:08;;;;;;;;;;;;;;;15.40;49.52;97166.56;4206311;28;6015;-69
2023/03/20 15:06:11;;;;;;;;;;;;;;;15.41;49.41;97170.88;4207360;28;5896;-68
2023/03/20 15:08:21;;;;;;;;;;;;;;;15.41;49.20;97168.22;4209476;28;6473;-68
2023/03/20 15:10:25;;;;;;;;;;;;;;;15.42;49.45;97170.66;4213363;28;5643;-69
2023/03/20 15:12:34;;;;;;;;;;;;;;;15.38;49.34;97165.97;4207205;28;5782;-68
2023/03/20 15:14:44;;;;;;;;;;;;;;;15.39;49.32;97159.59;4203738;28;5650;-68
2023/03/20 15:16:49;;;;;;;;;;;;;;;15.38;49.08;97156.13;4212904;28;5699;-67
2023/03/20 15:18:53;;;;;;;;;;;;;;;15.41;49.28;97163.72;4206303;28;6349;-70
2023/03/20 15:20:56;;;;;;;;;;;;;;;15.42;49.08;97162.66;4207949;28;5727;-68
2023/03/20 15:23:01;;;;;;;;;;;;;;;15.44;49.07;97165.13;4212684;28;5919;-67
2023/03/20 15:25:05;;;;;;;;;;;;;;;15.42;49.19;97164.53;4211547;28;5779;-68
2023/03/20 15:27:12;;;;;;;;;;;;;;;15.39;49.02;97160.41;4207002;28;5691;-67
2023/03/20 15:29:18;;;;;;;;;;;;;;;15.38;48.91;97161.44;4218339;28;5709;-67
2023/03/20 15:31:24;;;;;;;;;;;;;;;15.36;49.13;97163.50;4213663;28;5621;-67
2023/03/20 15:33:31;;;;;;;;;;;;;;;15.37;49.10;97161.66;4216485;28;5673;-67
2023/03/20 15:35:34;;;;;;;;;;;;;;;15.35;49.39;97158.41;4218193;28;5637;-69
2023/03/20 15:37:37;;;;;;;;;;;;;;;15.32;49.17;97158.84;4199219;28;5746;-68
2023/03/20 15:39:43;;;;;;;;;;;;;;;15.27;49.34;97162.13;4218006;28;5880;-68
2023/03/20 15:41:48;;;;;;;;;;;;;;;15.25;49.25;97161.53;4218042;28;5621;-68
2023/03/20 15:43:51;;;;;;;;;;;;;;;15.28;49.48;97163.75;4209043;28;5739;-68
2023/03/20 15:45:57;;;;;;;;;;;;;;;15.30;49.30;97152.91;4214610;28;5621;-68
2023/03/20 16:02:31;;;;;;;;;;;;;;;15.50;49.43;97153.59;4217299;27;1438048;-68
2023/03/20 16:04:34;;;;;;;;;;;;;;;15.52;49.36;97159.53;4246046;27;5631;-67
2023/03/20 16:06:46;;;;;;;;;;;;;;;15.55;49.26;97159.09;4243492;27;5784;-67
2023/03/20 16:08:57;;;;;;;;;;;;;;;15.56;49.39;97150.06;4245757;27;5835;-68
2023/03/20 16:11:03;;;;;;;;;;;;;;;15.58;49.32;97155.19;4247501;27;5645;-68
2023/03/20 16:13:07;;;;;;;;;;;;;;;15.59;48.97;97149.63;4241618;27;5790;-68
2023/03/20 16:15:13;;;;;;;;;;;;;;;15.58;48.94;97147.19;4243739;27;5641;-68
2023/03/20 16:17:18;;;;;;;;;;;;;;;15.58;48.77;97144.53;4244555;27;5681;-68
2023/03/20 16:19:23;;;;;;;;;;;;;;;15.58;48.67;97152.50;4235798;27;5794;-67
2023/03/20 16:21:30;;;;;;;;;;;;;;;15.54;48.97;97152.13;4241568;27;5644;-69
2023/03/20 16:23:37;;;;;;;;;;;;;;;15.54;48.61;97148.66;4236401;27;5736;-69
2023/03/20 16:25:41;;;;;;;;;;;;;;;15.52;48.55;97148.06;4247217;27;5649;-68
2023/03/20 16:27:46;;;;;;;;;;;;;;;15.50;48.64;97145.59;4248193;27;6523;-69
2023/03/20 16:29:52;;;;;;;;;;;;;;;15.51;48.57;97155.22;4248331;27;5672;-68
2023/03/20 16:31:58;;;;;;;;;;;;;;;15.49;48.23;97154.63;4248101;27;6445;-69
2023/03/20 16:34:05;;;;;;;;;;;;;;;15.47;48.48;97156.69;4248369;27;5728;-69
2023/03/20 16:36:17;;;;;;;;;;;;;;;15.46;48.23;97149.72;4248614;27;6382;-70
2023/03/20 16:38:25;;;;;;;;;;;;;;;15.48;48.30;97152.97;4247965;27;5843;-69